Time,TemperatureF,DewpointF,PressureIn,WindDirection,WindDirectionDegrees,WindSpeedMPH,WindSpeedGustMPH,Humidity,HourlyPrecipIn,Conditions,Clouds,dailyrainin,SoftwareType,DateUTC
2013-01-09 00:09:00,21.4,18.9,30.36,NNW,337,0.0,-999.0,90,-99.99,,,0.00,Acu-Link.com,2013-01-09 05:09:00,
2013-01-09 00:24:00,20.8,18.1,30.36,NW,315,0.0,-999.0,89,-99.99,,,0.00,Acu-Link.com,2013-01-09 05:24:00,
2013-01-09 00:40:00,20.3,17.8,30.38,North,0,0.0,-999.0,90,-99.99,,,0.00,Acu-Link.com,2013-01-09 05:40:00,
2013-01-09 00:55:00,20.1,17.9,30.37,NNE,22,0.0,-999.0,91,-99.99,,,0.00,Acu-Link.com,2013-01-09 05:55:00,
2013-01-09 01:10:00,20.7,18.2,30.37,NW,315,0.0,-999.0,90,-99.99,,,0.00,Acu-Link.com,2013-01-09 06:10:00,
2013-01-09 01:25:00,20.3,17.8,30.37,WNW,292,0.0,-999.0,90,-99.99,,,0.00,Acu-Link.com,2013-01-09 06:25:00,
2013-01-09 01:41:00,20.3,17.8,30.38,NE,45,0.0,-999.0,90,-99.99,,,0.00,Acu-Link.com,2013-01-09 06:41:00,
2013-01-09 01:56:00,20.1,17.6,30.37,NW,315,0.0,-999.0,90,-99.99,,,0.00,Acu-Link.com,2013-01-09 06:56:00,
2013-01-09 02:11:00,19.9,17.4,30.37,NW,315,0.0,-999.0,90,-99.99,,,0.00,Acu-Link.com,2013-01-09 07:11:00,
2013-01-09 02:26:00,19.4,17.0,30.38,NW,315,0.0,-999.0,90,-99.99,,,0.00,Acu-Link.com,2013-01-09 07:26:00,
2013-01-09 02:42:00,18.9,17.0,30.37,NW,315,0.0,-999.0,92,-99.99,,,0.00,Acu-Link.com,2013-01-09 07:42:00,
2013-01-09 02:57:00,18.9,17.2,30.38,NW,315,0.0,-999.0,93,-99.99,,,0.00,Acu-Link.com,2013-01-09 07:57:00,
2013-01-09 03:12:00,18.7,17.0,30.37,West,270,0.0,-999.0,93,-99.99,,,0.00,Acu-Link.com,2013-01-09 08:12:00,
2013-01-09 03:27:00,18.3,16.6,30.36,West,270,0.0,-999.0,93,-99.99,,,0.00,Acu-Link.com,2013-01-09 08:27:00,
2013-01-09 03:43:00,18.3,16.6,30.36,West,270,0.0,-999.0,93,-99.99,,,0.00,Acu-Link.com,2013-01-09 08:43:00,
2013-01-09 03:58:00,18.3,16.6,30.35,NNE,22,0.0,-999.0,93,-99.99,,,0.00,Acu-Link.com,2013-01-09 08:58:00,
2013-01-09 04:13:00,18.3,16.6,30.36,NW,315,0.0,-999.0,93,-99.99,,,0.00,Acu-Link.com,2013-01-09 09:13:00,
2013-01-09 04:28:00,17.8,15.9,30.35,NW,315,0.0,-999.0,92,-99.99,,,0.00,Acu-Link.com,2013-01-09 09:28:00,
2013-01-09 04:43:00,17.8,16.4,30.34,North,0,0.0,-999.0,94,-99.99,,,0.00,Acu-Link.com,2013-01-09 09:43:00,
2013-01-09 04:59:00,17.6,16.2,30.35,WNW,292,0.0,-999.0,94,-99.99,,,0.00,Acu-Link.com,2013-01-09 09:59:00,
2013-01-09 05:14:00,17.1,15.7,30.35,NNW,337,0.0,-999.0,94,-99.99,,,0.00,Acu-Link.com,2013-01-09 10:14:00,
2013-01-09 05:29:00,17.1,15.7,30.36,WNW,292,0.0,-999.0,94,-99.99,,,0.00,Acu-Link.com,2013-01-09 10:29:00,
2013-01-09 05:44:00,16.5,15.1,30.35,NW,315,0.0,-999.0,94,-99.99,,,0.00,Acu-Link.com,2013-01-09 10:44:00,
2013-01-09 05:59:00,16.5,15.1,30.37,WNW,292,0.0,-999.0,94,-99.99,,,0.00,Acu-Link.com,2013-01-09 10:59:00,
2013-01-09 06:15:00,16.0,14.6,30.37,NNE,22,0.0,-999.0,94,-99.99,,,0.00,Acu-Link.com,2013-01-09 11:15:00,
2013-01-09 06:30:00,15.3,13.6,30.38,WNW,292,0.0,-999.0,93,-99.99,,,0.00,Acu-Link.com,2013-01-09 11:30:00,
2013-01-09 06:45:00,15.1,13.4,30.38,NW,315,0.0,-999.0,93,-99.99,,,0.00,Acu-Link.com,2013-01-09 11:45:00,
2013-01-09 07:01:00,15.3,13.9,30.39,WNW,292,0.0,-999.0,94,-99.99,,,0.00,Acu-Link.com,2013-01-09 12:01:00,
2013-01-09 07:16:00,14.7,13.1,30.39,WNW,292,0.0,-999.0,93,-99.99,,,0.00,Acu-Link.com,2013-01-09 12:16:00,
2013-01-09 07:31:00,14.4,12.5,30.40,WNW,292,0.0,-999.0,92,-99.99,,,0.00,Acu-Link.com,2013-01-09 12:31:00,
2013-01-09 07:46:00,14.2,12.3,30.38,WNW,292,0.0,-999.0,92,-99.99,,,0.00,Acu-Link.com,2013-01-09 12:46:00,
2013-01-09 08:02:00,14.5,12.9,30.40,WNW,292,0.0,-999.0,93,-99.99,,,0.00,Acu-Link.com,2013-01-09 13:02:00,
2013-01-09 08:17:00,14.9,13.2,30.39,NNE,22,0.0,-999.0,93,-99.99,,,0.00,Acu-Link.com,2013-01-09 13:17:00,
2013-01-09 08:32:00,15.6,14.2,30.38,SE,135,0.0,-999.0,94,-99.99,,,0.00,Acu-Link.com,2013-01-09 13:32:00,
2013-01-09 08:47:00,16.3,14.9,30.38,WNW,292,0.0,-999.0,94,-99.99,,,0.00,Acu-Link.com,2013-01-09 13:47:00,
2013-01-09 09:02:00,17.4,16.0,30.38,NW,315,0.0,-999.0,94,-99.99,,,0.00,Acu-Link.com,2013-01-09 14:02:00,
2013-01-09 09:18:00,18.3,16.9,30.39,NW,315,0.0,-999.0,94,-99.99,,,0.00,Acu-Link.com,2013-01-09 14:18:00,
2013-01-09 09:33:00,21.4,18.7,30.37,SW,225,0.0,-999.0,89,-99.99,,,0.00,Acu-Link.com,2013-01-09 14:33:00,
2013-01-09 09:48:00,23.7,19.9,30.36,SSE,157,0.0,-999.0,85,-99.99,,,0.00,Acu-Link.com,2013-01-09 14:48:00,
2013-01-09 10:04:00,25.5,19.9,30.35,South,180,0.0,-999.0,79,-99.99,,,0.00,Acu-Link.com,2013-01-09 15:04:00,
2013-01-09 10:19:00,25.7,20.4,30.33,ENE,67,0.0,-999.0,80,-99.99,,,0.00,Acu-Link.com,2013-01-09 15:19:00,
2013-01-09 10:34:00,27.0,21.4,30.33,WNW,292,0.0,-999.0,79,-99.99,,,0.00,Acu-Link.com,2013-01-09 15:34:00,
2013-01-09 10:49:00,29.3,22.7,30.31,ESE,112,0.0,-999.0,76,-99.99,,,0.00,Acu-Link.com,2013-01-09 15:49:00,
2013-01-09 11:04:00,29.5,22.9,30.31,WSW,247,0.0,-999.0,76,-99.99,,,0.00,Acu-Link.com,2013-01-09 16:04:00,
2013-01-09 11:20:00,29.7,23.1,30.29,East,90,0.0,-999.0,76,-99.99,,,0.00,Acu-Link.com,2013-01-09 16:20:00,
2013-01-09 11:35:00,29.7,23.1,30.26,ESE,112,0.0,-999.0,76,-99.99,,,0.00,Acu-Link.com,2013-01-09 16:35:00,
2013-01-09 11:50:00,29.7,23.1,30.25,South,180,0.0,-999.0,76,-99.99,,,0.00,Acu-Link.com,2013-01-09 16:50:00,
2013-01-09 12:05:00,29.8,23.2,30.24,SW,225,0.0,-999.0,76,-99.99,,,0.00,Acu-Link.com,2013-01-09 17:05:00,
2013-01-09 12:21:00,30.2,23.6,30.21,ESE,112,0.0,-999.0,76,-99.99,,,0.00,Acu-Link.com,2013-01-09 17:21:00,
2013-01-09 12:36:00,30.4,23.8,30.19,South,180,0.0,-999.0,76,-99.99,,,0.00,Acu-Link.com,2013-01-09 17:36:00,
2013-01-09 12:51:00,30.6,24.6,30.17,NW,315,0.0,-999.0,78,-99.99,,,0.00,Acu-Link.com,2013-01-09 17:51:00,
2013-01-09 13:06:00,31.3,25.3,30.14,NNW,337,0.0,-999.0,78,-99.99,,,0.00,Acu-Link.com,2013-01-09 18:06:00,
2013-01-09 13:22:00,31.8,26.0,30.14,ENE,67,0.0,-999.0,79,-99.99,,,0.00,Acu-Link.com,2013-01-09 18:22:00,
2013-01-09 13:37:00,32.2,26.1,30.15,NW,315,0.0,-999.0,78,-99.99,,,0.00,Acu-Link.com,2013-01-09 18:37:00,
2013-01-09 13:52:00,32.2,25.8,30.14,ENE,67,0.0,-999.0,77,-99.99,,,0.00,Acu-Link.com,2013-01-09 18:52:00,
2013-01-09 14:07:00,31.8,26.3,30.14,ESE,112,0.0,-999.0,80,-99.99,,,0.00,Acu-Link.com,2013-01-09 19:07:00,
2013-01-09 14:22:00,31.1,24.7,30.11,South,180,0.0,-999.0,77,-99.99,,,0.00,Acu-Link.com,2013-01-09 19:22:00,
2013-01-09 14:38:00,31.3,24.6,30.10,South,180,0.0,-999.0,76,-99.99,,,0.00,Acu-Link.com,2013-01-09 19:38:00,
2013-01-09 14:53:00,31.1,25.1,30.09,South,180,0.0,-999.0,78,-99.99,,,0.00,Acu-Link.com,2013-01-09 19:53:00,
2013-01-09 15:08:00,31.1,25.1,30.09,South,180,0.0,-999.0,78,-99.99,,,0.00,Acu-Link.com,2013-01-09 20:08:00,
2013-01-09 15:23:00,30.7,25.9,30.08,South,180,0.0,-999.0,82,-99.99,,,0.00,Acu-Link.com,2013-01-09 20:23:00,
2013-01-09 15:39:00,30.4,26.4,30.07,South,180,0.0,-999.0,85,-99.99,,,0.00,Acu-Link.com,2013-01-09 20:39:00,
2013-01-09 15:54:00,30.2,25.7,30.04,South,180,0.0,-999.0,83,-99.99,,,0.00,Acu-Link.com,2013-01-09 20:54:00,
2013-01-09 16:09:00,30.0,26.3,30.03,South,180,0.0,-999.0,86,-99.99,,,0.00,Acu-Link.com,2013-01-09 21:09:00,
2013-01-09 16:24:00,29.8,25.9,30.01,South,180,0.0,-999.0,85,-99.99,,,0.00,Acu-Link.com,2013-01-09 21:24:00,
2013-01-09 16:39:00,30.0,26.0,29.98,SE,135,0.0,-999.0,85,-99.99,,,0.00,Acu-Link.com,2013-01-09 21:39:00,
2013-01-09 16:55:00,30.0,25.8,29.98,NNE,22,0.0,-999.0,84,-99.99,,,0.00,Acu-Link.com,2013-01-09 21:55:00,
2013-01-09 17:10:00,30.0,26.0,29.96,North,0,0.0,-999.0,85,-99.99,,,0.00,Acu-Link.com,2013-01-09 22:10:00,
2013-01-09 17:25:00,30.0,26.3,29.97,NNE,22,0.0,-999.0,86,-99.99,,,0.00,Acu-Link.com,2013-01-09 22:25:00,
2013-01-09 17:40:00,29.8,25.9,29.96,WNW,292,0.0,-999.0,85,-99.99,,,0.00,Acu-Link.com,2013-01-09 22:40:00,
2013-01-09 17:55:00,29.7,26.0,29.95,North,0,0.0,-999.0,86,-99.99,,,0.00,Acu-Link.com,2013-01-09 22:55:00,
2013-01-09 18:11:00,29.7,26.0,29.94,NNE,22,0.0,-999.0,86,-99.99,,,0.00,Acu-Link.com,2013-01-09 23:11:00,
2013-01-09 18:26:00,29.7,26.0,29.93,NNE,22,0.0,-999.0,86,-99.99,,,0.00,Acu-Link.com,2013-01-09 23:26:00,
2013-01-09 18:41:00,29.3,25.9,29.91,NNE,22,0.0,-999.0,87,-99.99,,,0.00,Acu-Link.com,2013-01-09 23:41:00,
2013-01-09 18:56:00,28.4,25.0,29.90,South,180,0.0,-999.0,87,-99.99,,,0.00,Acu-Link.com,2013-01-09 23:56:00,
2013-01-09 19:11:00,27.7,24.9,29.92,WNW,292,0.0,-999.0,89,-99.99,,,0.00,Acu-Link.com,2013-01-10 00:11:00,
2013-01-09 19:27:00,27.3,24.8,29.90,NW,315,0.0,-999.0,90,-99.99,,,0.00,Acu-Link.com,2013-01-10 00:27:00,
2013-01-09 19:42:00,27.1,24.8,29.90,NE,45,0.0,-999.0,91,-99.99,,,0.00,Acu-Link.com,2013-01-10 00:42:00,
2013-01-09 19:58:00,27.1,24.8,29.88,ESE,112,0.0,-999.0,91,-99.99,,,0.00,Acu-Link.com,2013-01-10 00:58:00,
2013-01-09 20:13:00,27.0,24.7,29.89,ENE,67,1.1,-999.0,91,-99.99,,,0.00,Acu-Link.com,2013-01-10 01:13:00,
2013-01-09 20:28:00,27.0,24.7,29.88,NW,315,1.1,-999.0,91,-99.99,,,0.00,Acu-Link.com,2013-01-10 01:28:00,
2013-01-09 20:43:00,28.2,25.9,29.86,South,180,3.7,-999.0,91,-99.99,,,0.00,Acu-Link.com,2013-01-10 01:43:00,
2013-01-09 20:59:00,31.1,27.1,29.87,SW,225,2.2,-999.0,85,-99.99,,,0.00,Acu-Link.com,2013-01-10 01:59:00,
2013-01-09 21:14:00,37.2,31.9,29.87,NW,315,2.2,-999.0,81,-99.99,,,0.00,Acu-Link.com,2013-01-10 02:14:00,
2013-01-09 21:29:00,38.5,33.8,29.89,SW,225,2.2,-999.0,83,-99.99,,,0.00,Acu-Link.com,2013-01-10 02:29:00,
2013-01-09 21:44:00,37.4,33.6,29.89,NW,315,1.7,-999.0,86,-99.99,,,0.00,Acu-Link.com,2013-01-10 02:44:00,
2013-01-09 22:00:00,37.8,30.9,29.89,NNE,22,1.7,-999.0,76,-99.99,,,0.00,Acu-Link.com,2013-01-10 03:00:00,
2013-01-09 22:15:00,39.6,29.2,29.89,NW,315,4.2,-999.0,66,-99.99,,,0.00,Acu-Link.com,2013-01-10 03:15:00,
2013-01-09 22:30:00,39.6,28.8,29.89,West,270,2.7,-999.0,65,-99.99,,,0.00,Acu-Link.com,2013-01-10 03:30:00,
2013-01-09 22:46:00,39.4,29.0,29.90,NNE,22,2.7,-999.0,66,-99.99,,,0.00,Acu-Link.com,2013-01-10 03:46:00,
2013-01-09 23:01:00,39.6,29.6,29.90,ESE,112,4.2,-999.0,67,-99.99,,,0.01,Acu-Link.com,2013-01-10 04:01:00,
2013-01-09 23:18:00,38.3,31.4,29.91,SSE,157,1.7,-999.0,76,-99.99,,,0.01,Acu-Link.com,2013-01-10 04:18:00,
2013-01-09 23:43:00,36.1,32.9,29.91,North,0,1.1,-999.0,88,-99.99,,,0.01,Acu-Link.com,2013-01-10 04:43:00,
2013-01-09 23:58:00,36.3,32.5,29.91,ESE,112,4.2,-999.0,86,-99.99,,,0.02,Acu-Link.com,2013-01-10 04:58:00,